sensor_id;sensor_type;location;lat;lon;timestamp;temperature;humidity
28247;DHT22;66191;53.178;22.058;2023-07-28T00:00:49;15.20;92.90
28247;DHT22;66191;53.178;22.058;2023-07-28T00:03:32;15.20;93.00
28247;DHT22;66191;53.178;22.058;2023-07-28T00:06:05;15.20;92.90
28247;DHT22;66191;53.178;22.058;2023-07-28T00:08:37;15.20;92.90
28247;DHT22;66191;53.178;22.058;2023-07-28T00:11:14;15.20;93.00
28247;DHT22;66191;53.178;22.058;2023-07-28T00:13:46;15.10;93.10
28247;DHT22;66191;53.178;22.058;2023-07-28T00:16:18;15.10;93.00
28247;DHT22;66191;53.178;22.058;2023-07-28T00:18:52;15.10;93.00
28247;DHT22;66191;53.178;22.058;2023-07-28T00:21:32;15.10;93.00
28247;DHT22;66191;53.178;22.058;2023-07-28T00:24:03;15.10;93.30
28247;DHT22;66191;53.178;22.058;2023-07-28T00:26:40;15.00;93.20
28247;DHT22;66191;53.178;22.058;2023-07-28T00:29:12;15.00;93.20
28247;DHT22;66191;53.178;22.058;2023-07-28T00:31:45;15.00;93.30
28247;DHT22;66191;53.178;22.058;2023-07-28T00:34:16;14.90;93.30
28247;DHT22;66191;53.178;22.058;2023-07-28T00:36:48;14.90;93.30
28247;DHT22;66191;53.178;22.058;2023-07-28T00:39:21;14.90;93.30
28247;DHT22;66191;53.178;22.058;2023-07-28T00:41:57;14.90;93.40
28247;DHT22;66191;53.178;22.058;2023-07-28T00:44:28;14.90;93.60
28247;DHT22;66191;53.178;22.058;2023-07-28T00:47:03;14.90;93.70
28247;DHT22;66191;53.178;22.058;2023-07-28T00:49:38;14.90;93.70
28247;DHT22;66191;53.178;22.058;2023-07-28T00:52:10;14.80;93.80
28247;DHT22;66191;53.178;22.058;2023-07-28T00:54:41;14.70;93.90
28247;DHT22;66191;53.178;22.058;2023-07-28T00:57:15;14.70;94.00
28247;DHT22;66191;53.178;22.058;2023-07-28T00:59:51;14.70;94.10
28247;DHT22;66191;53.178;22.058;2023-07-28T01:02:22;14.60;94.20
28247;DHT22;66191;53.178;22.058;2023-07-28T01:04:58;14.60;94.30
28247;DHT22;66191;53.178;22.058;2023-07-28T01:07:35;14.50;94.40
28247;DHT22;66191;53.178;22.058;2023-07-28T01:10:13;14.50;94.50
28247;DHT22;66191;53.178;22.058;2023-07-28T01:12:52;14.50;94.60
28247;DHT22;66191;53.178;22.058;2023-07-28T01:15:25;14.40;94.60
28247;DHT22;66191;53.178;22.058;2023-07-28T01:17:56;14.40;94.50
28247;DHT22;66191;53.178;22.058;2023-07-28T01:20:31;14.40;94.40
28247;DHT22;66191;53.178;22.058;2023-07-28T01:23:19;14.40;94.70
28247;DHT22;66191;53.178;22.058;2023-07-28T01:25:58;14.40;94.40
28247;DHT22;66191;53.178;22.058;2023-07-28T01:28:36;14.50;94.50
28247;DHT22;66191;53.178;22.058;2023-07-28T01:31:08;14.50;94.50
28247;DHT22;66191;53.178;22.058;2023-07-28T01:33:42;14.40;94.50
28247;DHT22;66191;53.178;22.058;2023-07-28T01:36:15;14.50;94.70
28247;DHT22;66191;53.178;22.058;2023-07-28T01:38:47;14.50;94.70
28247;DHT22;66191;53.178;22.058;2023-07-28T01:41:18;14.40;94.70
28247;DHT22;66191;53.178;22.058;2023-07-28T01:43:52;14.30;94.70
28247;DHT22;66191;53.178;22.058;2023-07-28T01:46:26;14.20;94.90
28247;DHT22;66191;53.178;22.058;2023-07-28T01:49:00;14.20;95.10
28247;DHT22;66191;53.178;22.058;2023-07-28T01:51:33;14.20;95.10
28247;DHT22;66191;53.178;22.058;2023-07-28T01:54:08;14.10;95.10
28247;DHT22;66191;53.178;22.058;2023-07-28T01:56:41;14.10;95.30
28247;DHT22;66191;53.178;22.058;2023-07-28T01:59:15;14.00;95.40
28247;DHT22;66191;53.178;22.058;2023-07-28T02:01:47;14.00;95.50
28247;DHT22;66191;53.178;22.058;2023-07-28T02:04:18;14.00;95.60
28247;DHT22;66191;53.178;22.058;2023-07-28T02:06:53;14.00;95.50
28247;DHT22;66191;53.178;22.058;2023-07-28T02:09:27;14.00;95.60
28247;DHT22;66191;53.178;22.058;2023-07-28T02:11:59;14.00;95.60
28247;DHT22;66191;53.178;22.058;2023-07-28T02:14:33;14.00;95.50
28247;DHT22;66191;53.178;22.058;2023-07-28T02:17:05;14.00;95.50
28247;DHT22;66191;53.178;22.058;2023-07-28T02:19:36;14.00;95.50
28247;DHT22;66191;53.178;22.058;2023-07-28T02:22:07;14.00;95.60
28247;DHT22;66191;53.178;22.058;2023-07-28T02:24:47;14.00;95.60
28247;DHT22;66191;53.178;22.058;2023-07-28T02:27:19;14.10;95.70
28247;DHT22;66191;53.178;22.058;2023-07-28T02:29:53;14.00;95.70
28247;DHT22;66191;53.178;22.058;2023-07-28T02:32:26;14.10;95.70
28247;DHT22;66191;53.178;22.058;2023-07-28T02:35:03;14.10;95.50
28247;DHT22;66191;53.178;22.058;2023-07-28T02:37:35;14.10;95.50
28247;DHT22;66191;53.178;22.058;2023-07-28T02:40:10;14.10;95.60
28247;DHT22;66191;53.178;22.058;2023-07-28T02:42:42;14.10;95.70
28247;DHT22;66191;53.178;22.058;2023-07-28T02:45:18;14.00;95.80
28247;DHT22;66191;53.178;22.058;2023-07-28T02:47:49;14.00;95.90
28247;DHT22;66191;53.178;22.058;2023-07-28T02:50:24;14.00;95.90
28247;DHT22;66191;53.178;22.058;2023-07-28T02:52:55;14.00;95.90
28247;DHT22;66191;53.178;22.058;2023-07-28T02:55:26;14.00;96.00
28247;DHT22;66191;53.178;22.058;2023-07-28T02:57:57;14.10;96.10
28247;DHT22;66191;53.178;22.058;2023-07-28T03:00:33;14.10;96.10
28247;DHT22;66191;53.178;22.058;2023-07-28T03:03:04;14.20;96.00
28247;DHT22;66191;53.178;22.058;2023-07-28T03:05:39;14.30;96.00
28247;DHT22;66191;53.178;22.058;2023-07-28T03:08:30;14.40;96.00
28247;DHT22;66191;53.178;22.058;2023-07-28T03:11:21;14.50;96.00
28247;DHT22;66191;53.178;22.058;2023-07-28T03:13:56;14.60;95.90
28247;DHT22;66191;53.178;22.058;2023-07-28T03:16:32;14.80;95.70
28247;DHT22;66191;53.178;22.058;2023-07-28T03:19:03;14.90;95.30
28247;DHT22;66191;53.178;22.058;2023-07-28T03:21:38;15.00;95.10
28247;DHT22;66191;53.178;22.058;2023-07-28T03:24:10;15.20;95.00
28247;DHT22;66191;53.178;22.058;2023-07-28T03:26:44;15.20;94.70
28247;DHT22;66191;53.178;22.058;2023-07-28T03:29:15;15.40;94.60
28247;DHT22;66191;53.178;22.058;2023-07-28T03:31:50;15.40;94.20
28247;DHT22;66191;53.178;22.058;2023-07-28T03:34:23;15.50;94.30
28247;DHT22;66191;53.178;22.058;2023-07-28T03:36:56;15.50;94.10
28247;DHT22;66191;53.178;22.058;2023-07-28T03:39:28;15.50;93.90
28247;DHT22;66191;53.178;22.058;2023-07-28T03:42:00;15.50;93.80
28247;DHT22;66191;53.178;22.058;2023-07-28T03:44:31;15.50;93.70
28247;DHT22;66191;53.178;22.058;2023-07-28T03:47:05;15.50;93.70
28247;DHT22;66191;53.178;22.058;2023-07-28T03:49:39;15.50;93.60
28247;DHT22;66191;53.178;22.058;2023-07-28T03:52:14;15.60;93.60
28247;DHT22;66191;53.178;22.058;2023-07-28T03:54:48;15.60;93.60
28247;DHT22;66191;53.178;22.058;2023-07-28T03:57:20;15.70;93.50
28247;DHT22;66191;53.178;22.058;2023-07-28T03:59:52;15.70;93.60
28247;DHT22;66191;53.178;22.058;2023-07-28T04:02:30;15.80;93.70
28247;DHT22;66191;53.178;22.058;2023-07-28T04:05:01;15.80;93.60
28247;DHT22;66191;53.178;22.058;2023-07-28T04:07:33;15.80;93.60
28247;DHT22;66191;53.178;22.058;2023-07-28T04:10:07;15.90;93.60
28247;DHT22;66191;53.178;22.058;2023-07-28T04:12:38;15.90;93.60
28247;DHT22;66191;53.178;22.058;2023-07-28T04:15:09;15.90;93.50
28247;DHT22;66191;53.178;22.058;2023-07-28T04:17:51;16.00;93.40
28247;DHT22;66191;53.178;22.058;2023-07-28T04:20:23;16.00;93.50
28247;DHT22;66191;53.178;22.058;2023-07-28T04:22:57;16.10;93.50
28247;DHT22;66191;53.178;22.058;2023-07-28T04:25:36;16.10;93.50
28247;DHT22;66191;53.178;22.058;2023-07-28T04:28:12;16.10;93.50
28247;DHT22;66191;53.178;22.058;2023-07-28T04:30:48;16.10;93.60
28247;DHT22;66191;53.178;22.058;2023-07-28T04:33:54;16.20;93.50
28247;DHT22;66191;53.178;22.058;2023-07-28T04:36:48;16.30;93.50
28247;DHT22;66191;53.178;22.058;2023-07-28T04:39:25;16.30;93.40
28247;DHT22;66191;53.178;22.058;2023-07-28T04:42:21;16.30;93.40
28247;DHT22;66191;53.178;22.058;2023-07-28T04:44:54;16.40;93.40
28247;DHT22;66191;53.178;22.058;2023-07-28T04:47:39;16.40;93.30
28247;DHT22;66191;53.178;22.058;2023-07-28T04:50:25;16.50;93.20
28247;DHT22;66191;53.178;22.058;2023-07-28T04:53:21;16.50;93.20
28247;DHT22;66191;53.178;22.058;2023-07-28T04:56:10;16.50;93.30
28247;DHT22;66191;53.178;22.058;2023-07-28T04:59:11;16.60;93.30
28247;DHT22;66191;53.178;22.058;2023-07-28T05:01:46;16.60;93.10
28247;DHT22;66191;53.178;22.058;2023-07-28T05:04:22;16.60;93.10
28247;DHT22;66191;53.178;22.058;2023-07-28T05:06:58;16.70;93.20
28247;DHT22;66191;53.178;22.058;2023-07-28T05:09:32;16.80;93.10
28247;DHT22;66191;53.178;22.058;2023-07-28T05:12:18;16.80;93.00
28247;DHT22;66191;53.178;22.058;2023-07-28T05:17:54;16.90;92.80
28247;DHT22;66191;53.178;22.058;2023-07-28T05:20:45;17.00;92.80
28247;DHT22;66191;53.178;22.058;2023-07-28T05:23:26;17.10;92.70
28247;DHT22;66191;53.178;22.058;2023-07-28T05:26:03;17.20;92.60
28247;DHT22;66191;53.178;22.058;2023-07-28T05:28:35;17.30;92.30
28247;DHT22;66191;53.178;22.058;2023-07-28T05:31:07;17.40;92.30
28247;DHT22;66191;53.178;22.058;2023-07-28T05:33:39;17.50;92.30
28247;DHT22;66191;53.178;22.058;2023-07-28T05:36:13;17.60;92.30
28247;DHT22;66191;53.178;22.058;2023-07-28T05:38:49;17.60;92.30
28247;DHT22;66191;53.178;22.058;2023-07-28T05:41:23;17.80;92.20
28247;DHT22;66191;53.178;22.058;2023-07-28T05:43:54;17.80;92.00
28247;DHT22;66191;53.178;22.058;2023-07-28T05:46:28;17.90;91.80
28247;DHT22;66191;53.178;22.058;2023-07-28T05:49:02;18.00;91.80
28247;DHT22;66191;53.178;22.058;2023-07-28T05:51:35;18.10;91.60
28247;DHT22;66191;53.178;22.058;2023-07-28T05:54:09;18.20;91.40
28247;DHT22;66191;53.178;22.058;2023-07-28T05:56:44;18.20;91.20
28247;DHT22;66191;53.178;22.058;2023-07-28T05:59:17;18.30;91.20
28247;DHT22;66191;53.178;22.058;2023-07-28T06:01:48;18.40;91.00
28247;DHT22;66191;53.178;22.058;2023-07-28T06:04:42;18.40;90.90
28247;DHT22;66191;53.178;22.058;2023-07-28T06:07:13;18.60;90.60
28247;DHT22;66191;53.178;22.058;2023-07-28T06:09:50;18.60;90.10
28247;DHT22;66191;53.178;22.058;2023-07-28T06:12:21;18.70;89.30
28247;DHT22;66191;53.178;22.058;2023-07-28T06:14:59;18.80;89.30
28247;DHT22;66191;53.178;22.058;2023-07-28T06:17:31;18.90;89.10
28247;DHT22;66191;53.178;22.058;2023-07-28T06:20:07;19.00;89.30
28247;DHT22;66191;53.178;22.058;2023-07-28T06:22:42;19.10;89.40
28247;DHT22;66191;53.178;22.058;2023-07-28T06:25:22;19.20;89.20
28247;DHT22;66191;53.178;22.058;2023-07-28T06:27:57;19.40;88.10
28247;DHT22;66191;53.178;22.058;2023-07-28T06:30:30;19.60;87.30
28247;DHT22;66191;53.178;22.058;2023-07-28T06:33:08;19.70;86.10
28247;DHT22;66191;53.178;22.058;2023-07-28T06:35:45;19.80;85.60
28247;DHT22;66191;53.178;22.058;2023-07-28T06:38:18;19.90;84.60
28247;DHT22;66191;53.178;22.058;2023-07-28T06:40:57;20.00;84.70
28247;DHT22;66191;53.178;22.058;2023-07-28T06:43:30;20.00;84.10
28247;DHT22;66191;53.178;22.058;2023-07-28T06:46:04;20.10;84.20
28247;DHT22;66191;53.178;22.058;2023-07-28T06:48:35;20.20;83.80
28247;DHT22;66191;53.178;22.058;2023-07-28T06:51:11;20.30;83.40
28247;DHT22;66191;53.178;22.058;2023-07-28T06:53:43;20.40;83.70
28247;DHT22;66191;53.178;22.058;2023-07-28T06:56:19;20.60;83.20
28247;DHT22;66191;53.178;22.058;2023-07-28T06:59:02;20.70;82.90
28247;DHT22;66191;53.178;22.058;2023-07-28T07:01:51;20.70;82.40
28247;DHT22;66191;53.178;22.058;2023-07-28T07:04:25;20.80;82.00
28247;DHT22;66191;53.178;22.058;2023-07-28T07:07:00;20.80;81.80
28247;DHT22;66191;53.178;22.058;2023-07-28T07:09:32;20.90;81.60
28247;DHT22;66191;53.178;22.058;2023-07-28T07:12:08;20.90;81.40
28247;DHT22;66191;53.178;22.058;2023-07-28T07:14:45;21.00;81.20
28247;DHT22;66191;53.178;22.058;2023-07-28T07:17:22;21.10;82.00
28247;DHT22;66191;53.178;22.058;2023-07-28T07:19:54;21.10;80.70
28247;DHT22;66191;53.178;22.058;2023-07-28T07:22:29;21.20;80.60
28247;DHT22;66191;53.178;22.058;2023-07-28T07:25:06;21.30;79.90
28247;DHT22;66191;53.178;22.058;2023-07-28T07:27:43;21.40;79.50
28247;DHT22;66191;53.178;22.058;2023-07-28T07:30:18;21.40;79.50
28247;DHT22;66191;53.178;22.058;2023-07-28T07:32:49;21.50;79.50
28247;DHT22;66191;53.178;22.058;2023-07-28T07:35:20;21.60;79.30
28247;DHT22;66191;53.178;22.058;2023-07-28T07:37:53;21.60;79.00
28247;DHT22;66191;53.178;22.058;2023-07-28T07:40:26;21.70;79.00
28247;DHT22;66191;53.178;22.058;2023-07-28T07:43:06;21.70;78.70
28247;DHT22;66191;53.178;22.058;2023-07-28T07:45:50;21.70;78.20
28247;DHT22;66191;53.178;22.058;2023-07-28T07:48:25;21.80;78.40
28247;DHT22;66191;53.178;22.058;2023-07-28T07:50:59;21.70;78.10
28247;DHT22;66191;53.178;22.058;2023-07-28T07:53:31;21.60;78.30
28247;DHT22;66191;53.178;22.058;2023-07-28T07:56:03;21.50;78.30
28247;DHT22;66191;53.178;22.058;2023-07-28T07:58:37;21.50;78.80
28247;DHT22;66191;53.178;22.058;2023-07-28T08:01:08;21.50;79.20
28247;DHT22;66191;53.178;22.058;2023-07-28T08:03:40;21.50;79.20
28247;DHT22;66191;53.178;22.058;2023-07-28T08:06:16;21.40;79.00
28247;DHT22;66191;53.178;22.058;2023-07-28T08:08:52;21.40;79.40
28247;DHT22;66191;53.178;22.058;2023-07-28T08:11:26;21.40;79.70
28247;DHT22;66191;53.178;22.058;2023-07-28T08:14:00;21.30;79.50
28247;DHT22;66191;53.178;22.058;2023-07-28T08:16:37;21.20;79.40
28247;DHT22;66191;53.178;22.058;2023-07-28T08:19:11;21.20;79.80
28247;DHT22;66191;53.178;22.058;2023-07-28T08:21:44;21.20;80.00
28247;DHT22;66191;53.178;22.058;2023-07-28T08:24:17;21.20;79.90
28247;DHT22;66191;53.178;22.058;2023-07-28T08:26:49;21.20;79.40
28247;DHT22;66191;53.178;22.058;2023-07-28T08:29:24;21.10;79.80
28247;DHT22;66191;53.178;22.058;2023-07-28T08:31:57;21.10;80.30
28247;DHT22;66191;53.178;22.058;2023-07-28T08:34:33;21.00;80.60
28247;DHT22;66191;53.178;22.058;2023-07-28T08:37:06;20.90;81.10
28247;DHT22;66191;53.178;22.058;2023-07-28T08:39:39;20.90;80.30
28247;DHT22;66191;53.178;22.058;2023-07-28T08:42:10;20.90;80.40
28247;DHT22;66191;53.178;22.058;2023-07-28T08:44:44;20.90;80.50
28247;DHT22;66191;53.178;22.058;2023-07-28T08:47:19;20.80;80.50
28247;DHT22;66191;53.178;22.058;2023-07-28T08:49:55;20.80;80.30
28247;DHT22;66191;53.178;22.058;2023-07-28T08:52:28;20.80;80.60
28247;DHT22;66191;53.178;22.058;2023-07-28T08:55:04;20.80;80.80
28247;DHT22;66191;53.178;22.058;2023-07-28T08:57:35;20.80;80.80
28247;DHT22;66191;53.178;22.058;2023-07-28T09:00:12;20.80;80.60
28247;DHT22;66191;53.178;22.058;2023-07-28T09:02:51;20.80;81.00
28247;DHT22;66191;53.178;22.058;2023-07-28T09:05:27;20.80;81.80
28247;DHT22;66191;53.178;22.058;2023-07-28T09:08:04;20.80;82.00
28247;DHT22;66191;53.178;22.058;2023-07-28T09:10:42;20.80;81.50
28247;DHT22;66191;53.178;22.058;2023-07-28T09:13:14;20.80;82.40
28247;DHT22;66191;53.178;22.058;2023-07-28T09:15:48;20.80;82.50
28247;DHT22;66191;53.178;22.058;2023-07-28T09:18:20;20.90;82.80
28247;DHT22;66191;53.178;22.058;2023-07-28T09:20:56;20.90;82.80
28247;DHT22;66191;53.178;22.058;2023-07-28T09:23:29;21.00;82.70
28247;DHT22;66191;53.178;22.058;2023-07-28T09:26:01;21.00;82.80
28247;DHT22;66191;53.178;22.058;2023-07-28T09:28:37;21.00;82.40
28247;DHT22;66191;53.178;22.058;2023-07-28T09:31:12;21.10;82.40
28247;DHT22;66191;53.178;22.058;2023-07-28T09:33:43;21.10;82.30
28247;DHT22;66191;53.178;22.058;2023-07-28T09:36:19;21.10;81.90
28247;DHT22;66191;53.178;22.058;2023-07-28T09:38:57;21.20;81.60
28247;DHT22;66191;53.178;22.058;2023-07-28T09:41:29;21.20;82.10
28247;DHT22;66191;53.178;22.058;2023-07-28T09:44:05;21.20;82.20
28247;DHT22;66191;53.178;22.058;2023-07-28T09:46:51;21.20;83.00
28247;DHT22;66191;53.178;22.058;2023-07-28T09:49:28;21.20;83.80
28247;DHT22;66191;53.178;22.058;2023-07-28T09:52:05;21.00;84.50
28247;DHT22;66191;53.178;22.058;2023-07-28T09:54:41;20.90;85.40
28247;DHT22;66191;53.178;22.058;2023-07-28T09:57:27;20.80;86.50
28247;DHT22;66191;53.178;22.058;2023-07-28T10:00:04;20.70;88.10
28247;DHT22;66191;53.178;22.058;2023-07-28T10:02:41;20.50;88.20
28247;DHT22;66191;53.178;22.058;2023-07-28T10:05:16;20.50;89.40
28247;DHT22;66191;53.178;22.058;2023-07-28T10:07:49;20.40;90.20
28247;DHT22;66191;53.178;22.058;2023-07-28T10:10:28;20.20;90.40
28247;DHT22;66191;53.178;22.058;2023-07-28T10:13:02;20.10;90.70
28247;DHT22;66191;53.178;22.058;2023-07-28T10:15:34;20.10;91.10
28247;DHT22;66191;53.178;22.058;2023-07-28T10:18:12;20.00;91.50
28247;DHT22;66191;53.178;22.058;2023-07-28T10:20:44;20.00;91.90
28247;DHT22;66191;53.178;22.058;2023-07-28T10:23:20;20.00;91.90
28247;DHT22;66191;53.178;22.058;2023-07-28T10:26:00;19.90;92.30
28247;DHT22;66191;53.178;22.058;2023-07-28T10:28:51;19.90;92.50
28247;DHT22;66191;53.178;22.058;2023-07-28T10:31:33;19.80;92.60
28247;DHT22;66191;53.178;22.058;2023-07-28T10:34:10;19.60;93.00
28247;DHT22;66191;53.178;22.058;2023-07-28T10:36:45;19.60;93.30
28247;DHT22;66191;53.178;22.058;2023-07-28T10:39:21;19.50;93.30
28247;DHT22;66191;53.178;22.058;2023-07-28T10:42:04;19.50;93.70
28247;DHT22;66191;53.178;22.058;2023-07-28T10:44:40;19.40;94.30
28247;DHT22;66191;53.178;22.058;2023-07-28T10:47:14;19.40;94.20
28247;DHT22;66191;53.178;22.058;2023-07-28T10:49:51;19.40;94.50
28247;DHT22;66191;53.178;22.058;2023-07-28T10:52:24;19.30;94.90
28247;DHT22;66191;53.178;22.058;2023-07-28T10:55:00;19.40;95.20
28247;DHT22;66191;53.178;22.058;2023-07-28T10:57:41;19.30;95.30
28247;DHT22;66191;53.178;22.058;2023-07-28T11:00:18;19.30;95.70
28247;DHT22;66191;53.178;22.058;2023-07-28T11:02:51;19.30;95.80
28247;DHT22;66191;53.178;22.058;2023-07-28T11:05:27;19.20;95.80
28247;DHT22;66191;53.178;22.058;2023-07-28T11:08:01;19.10;95.90
28247;DHT22;66191;53.178;22.058;2023-07-28T11:10:33;19.20;96.00
28247;DHT22;66191;53.178;22.058;2023-07-28T11:13:06;19.10;95.90
28247;DHT22;66191;53.178;22.058;2023-07-28T11:15:58;19.10;96.20
28247;DHT22;66191;53.178;22.058;2023-07-28T11:18:34;19.10;96.30
28247;DHT22;66191;53.178;22.058;2023-07-28T11:21:17;19.20;96.60
28247;DHT22;66191;53.178;22.058;2023-07-28T11:23:48;19.20;96.90
28247;DHT22;66191;53.178;22.058;2023-07-28T11:26:19;19.40;96.80
28247;DHT22;66191;53.178;22.058;2023-07-28T11:29:00;19.40;96.90
28247;DHT22;66191;53.178;22.058;2023-07-28T11:31:31;19.50;96.90
28247;DHT22;66191;53.178;22.058;2023-07-28T11:34:13;19.50;96.90
28247;DHT22;66191;53.178;22.058;2023-07-28T11:36:48;19.60;97.10
28247;DHT22;66191;53.178;22.058;2023-07-28T11:39:22;19.60;97.00
28247;DHT22;66191;53.178;22.058;2023-07-28T11:41:53;19.60;96.80
28247;DHT22;66191;53.178;22.058;2023-07-28T11:44:25;19.60;96.70
28247;DHT22;66191;53.178;22.058;2023-07-28T11:47:07;19.50;96.90
28247;DHT22;66191;53.178;22.058;2023-07-28T11:49:49;19.40;96.90
28247;DHT22;66191;53.178;22.058;2023-07-28T11:52:24;19.30;97.20
28247;DHT22;66191;53.178;22.058;2023-07-28T11:54:59;19.30;97.60
28247;DHT22;66191;53.178;22.058;2023-07-28T11:57:31;19.20;97.40
28247;DHT22;66191;53.178;22.058;2023-07-28T12:00:05;19.20;97.70
28247;DHT22;66191;53.178;22.058;2023-07-28T12:02:37;19.10;97.90
28247;DHT22;66191;53.178;22.058;2023-07-28T12:05:15;19.10;98.00
28247;DHT22;66191;53.178;22.058;2023-07-28T12:07:51;19.10;98.10
28247;DHT22;66191;53.178;22.058;2023-07-28T12:10:22;19.10;98.10
28247;DHT22;66191;53.178;22.058;2023-07-28T12:12:57;19.10;98.20
28247;DHT22;66191;53.178;22.058;2023-07-28T12:15:40;19.00;98.20
28247;DHT22;66191;53.178;22.058;2023-07-28T12:18:16;19.00;98.40
28247;DHT22;66191;53.178;22.058;2023-07-28T12:20:53;19.00;98.60
28247;DHT22;66191;53.178;22.058;2023-07-28T12:23:28;19.00;98.70
28247;DHT22;66191;53.178;22.058;2023-07-28T12:26:04;19.00;98.70
28247;DHT22;66191;53.178;22.058;2023-07-28T12:28:36;19.00;98.90
28247;DHT22;66191;53.178;22.058;2023-07-28T12:31:09;19.00;98.90
28247;DHT22;66191;53.178;22.058;2023-07-28T12:33:43;19.00;99.00
28247;DHT22;66191;53.178;22.058;2023-07-28T12:36:16;19.10;99.00
28247;DHT22;66191;53.178;22.058;2023-07-28T12:38:57;19.10;99.10
28247;DHT22;66191;53.178;22.058;2023-07-28T12:41:48;19.10;99.10
28247;DHT22;66191;53.178;22.058;2023-07-28T12:44:26;19.10;99.20
28247;DHT22;66191;53.178;22.058;2023-07-28T12:47:02;19.10;99.30
28247;DHT22;66191;53.178;22.058;2023-07-28T12:49:35;19.00;99.30
28247;DHT22;66191;53.178;22.058;2023-07-28T12:52:18;19.00;99.30
28247;DHT22;66191;53.178;22.058;2023-07-28T12:55:12;18.90;99.50
28247;DHT22;66191;53.178;22.058;2023-07-28T12:57:44;18.90;99.60
28247;DHT22;66191;53.178;22.058;2023-07-28T13:00:16;18.90;99.80
28247;DHT22;66191;53.178;22.058;2023-07-28T13:02:53;18.90;99.90
28247;DHT22;66191;53.178;22.058;2023-07-28T13:05:25;18.90;99.90
28247;DHT22;66191;53.178;22.058;2023-07-28T13:07:56;19.00;99.90
28247;DHT22;66191;53.178;22.058;2023-07-28T13:10:36;19.10;99.90
28247;DHT22;66191;53.178;22.058;2023-07-28T13:13:10;19.20;99.90
28247;DHT22;66191;53.178;22.058;2023-07-28T13:15:42;19.20;99.90
28247;DHT22;66191;53.178;22.058;2023-07-28T13:18:15;19.20;99.90
28247;DHT22;66191;53.178;22.058;2023-07-28T13:20:47;19.20;99.90
28247;DHT22;66191;53.178;22.058;2023-07-28T13:23:21;19.30;99.90
28247;DHT22;66191;53.178;22.058;2023-07-28T13:25:57;19.40;99.90
28247;DHT22;66191;53.178;22.058;2023-07-28T13:28:38;19.60;99.90
28247;DHT22;66191;53.178;22.058;2023-07-28T13:31:18;19.60;99.90
28247;DHT22;66191;53.178;22.058;2023-07-28T13:33:49;19.70;99.90
28247;DHT22;66191;53.178;22.058;2023-07-28T13:36:24;19.80;99.90
28247;DHT22;66191;53.178;22.058;2023-07-28T13:38:57;19.90;99.90
28247;DHT22;66191;53.178;22.058;2023-07-28T13:41:31;20.10;99.90
28247;DHT22;66191;53.178;22.058;2023-07-28T13:44:08;20.10;99.90
28247;DHT22;66191;53.178;22.058;2023-07-28T13:46:49;20.20;99.80
28247;DHT22;66191;53.178;22.058;2023-07-28T13:49:21;20.20;99.70
28247;DHT22;66191;53.178;22.058;2023-07-28T13:51:55;20.30;99.60
28247;DHT22;66191;53.178;22.058;2023-07-28T13:54:33;20.30;99.60
28247;DHT22;66191;53.178;22.058;2023-07-28T13:57:11;20.30;99.50
28247;DHT22;66191;53.178;22.058;2023-07-28T13:59:42;20.30;99.20
28247;DHT22;66191;53.178;22.058;2023-07-28T14:02:17;20.20;99.20
28247;DHT22;66191;53.178;22.058;2023-07-28T14:04:49;20.20;99.30
28247;DHT22;66191;53.178;22.058;2023-07-28T14:07:23;20.20;99.30
28247;DHT22;66191;53.178;22.058;2023-07-28T14:09:55;20.20;99.40
28247;DHT22;66191;53.178;22.058;2023-07-28T14:12:39;20.20;99.40
28247;DHT22;66191;53.178;22.058;2023-07-28T14:15:15;20.20;99.60
28247;DHT22;66191;53.178;22.058;2023-07-28T14:17:52;20.10;99.60
28247;DHT22;66191;53.178;22.058;2023-07-28T14:20:27;20.10;99.50
28247;DHT22;66191;53.178;22.058;2023-07-28T14:23:01;20.10;99.60
28247;DHT22;66191;53.178;22.058;2023-07-28T14:25:32;20.10;99.70
28247;DHT22;66191;53.178;22.058;2023-07-28T14:28:06;20.00;99.80
28247;DHT22;66191;53.178;22.058;2023-07-28T14:30:37;20.00;99.90
28247;DHT22;66191;53.178;22.058;2023-07-28T14:33:12;19.90;99.90
28247;DHT22;66191;53.178;22.058;2023-07-28T14:35:47;19.90;99.90
28247;DHT22;66191;53.178;22.058;2023-07-28T14:38:20;19.90;99.90
28247;DHT22;66191;53.178;22.058;2023-07-28T14:41:06;19.90;99.90
28247;DHT22;66191;53.178;22.058;2023-07-28T14:43:41;19.80;99.90
28247;DHT22;66191;53.178;22.058;2023-07-28T14:46:16;19.80;99.90
28247;DHT22;66191;53.178;22.058;2023-07-28T14:48:59;19.80;99.90
28247;DHT22;66191;53.178;22.058;2023-07-28T14:51:34;19.80;99.90
28247;DHT22;66191;53.178;22.058;2023-07-28T14:54:06;19.80;99.90
28247;DHT22;66191;53.178;22.058;2023-07-28T14:56:41;19.80;99.90
28247;DHT22;66191;53.178;22.058;2023-07-28T14:59:16;19.80;99.90
28247;DHT22;66191;53.178;22.058;2023-07-28T15:01:52;19.80;99.90
28247;DHT22;66191;53.178;22.058;2023-07-28T15:04:35;19.80;99.90
28247;DHT22;66191;53.178;22.058;2023-07-28T15:07:06;19.80;99.90
28247;DHT22;66191;53.178;22.058;2023-07-28T15:09:38;19.80;99.90
28247;DHT22;66191;53.178;22.058;2023-07-28T15:12:12;19.80;99.90
28247;DHT22;66191;53.178;22.058;2023-07-28T15:14:48;19.80;99.90
28247;DHT22;66191;53.178;22.058;2023-07-28T15:17:29;19.90;99.90
28247;DHT22;66191;53.178;22.058;2023-07-28T15:20:12;19.90;99.90
28247;DHT22;66191;53.178;22.058;2023-07-28T15:22:59;19.90;99.90
28247;DHT22;66191;53.178;22.058;2023-07-28T15:25:42;19.90;99.90
28247;DHT22;66191;53.178;22.058;2023-07-28T15:28:15;20.00;99.90
28247;DHT22;66191;53.178;22.058;2023-07-28T15:30:50;20.00;99.90
28247;DHT22;66191;53.178;22.058;2023-07-28T15:33:24;20.00;99.90
28247;DHT22;66191;53.178;22.058;2023-07-28T15:36:02;20.00;99.90
28247;DHT22;66191;53.178;22.058;2023-07-28T15:38:46;20.00;99.90
28247;DHT22;66191;53.178;22.058;2023-07-28T15:41:38;19.90;99.90
28247;DHT22;66191;53.178;22.058;2023-07-28T15:44:17;20.00;99.90
28247;DHT22;66191;53.178;22.058;2023-07-28T15:46:53;20.00;99.90
28247;DHT22;66191;53.178;22.058;2023-07-28T15:49:26;20.00;99.90
28247;DHT22;66191;53.178;22.058;2023-07-28T15:52:01;20.10;99.90
28247;DHT22;66191;53.178;22.058;2023-07-28T15:54:32;20.10;99.90
28247;DHT22;66191;53.178;22.058;2023-07-28T15:57:03;20.20;99.90
28247;DHT22;66191;53.178;22.058;2023-07-28T15:59:36;20.20;99.90
28247;DHT22;66191;53.178;22.058;2023-07-28T16:02:14;20.20;99.90
28247;DHT22;66191;53.178;22.058;2023-07-28T16:04:47;20.20;99.90
28247;DHT22;66191;53.178;22.058;2023-07-28T16:07:20;20.20;99.90
28247;DHT22;66191;53.178;22.058;2023-07-28T16:09:56;20.20;99.90